sensor_id;sensor_type;location;lat;lon;timestamp;pressure;altitude;pressure_sealevel;temperature;humidity
68489;BME280;55481;48.764;8.936;2023-02-17T00:00:37;97790;;;7.8;67.5
68489;BME280;55481;48.764;8.936;2023-02-17T00:03:08;97800;;;7.8;67.5
68489;BME280;55481;48.764;8.936;2023-02-17T00:05:46;97800;;;7.8;67.5
68489;BME280;55481;48.764;8.936;2023-02-17T00:08:16;97800;;;8;67
68489;BME280;55481;48.764;8.936;2023-02-17T00:10:41;97800;;;8;67
68489;BME280;55481;48.764;8.936;2023-02-17T00:13:12;97800;;;7.9;67
68489;BME280;55481;48.764;8.936;2023-02-17T00:18:06;97810;;;7.9;67
68489;BME280;55481;48.764;8.936;2023-02-17T00:20:37;97800;;;7.9;67
68489;BME280;55481;48.764;8.936;2023-02-17T00:23:08;97790;;;7.9;67
68489;BME280;55481;48.764;8.936;2023-02-17T00:25:39;97790;;;7.9;67
68489;BME280;55481;48.764;8.936;2023-02-17T00:28:09;97800;;;7.9;67
68489;BME280;55481;48.764;8.936;2023-02-17T00:35:41;97790;;;7.8;67.5
68489;BME280;55481;48.764;8.936;2023-02-17T00:38:12;97790;;;7.8;67.5
68489;BME280;55481;48.764;8.936;2023-02-17T00:40:50;97780;;;7.8;67
68489;BME280;55481;48.764;8.936;2023-02-17T00:43:21;97790;;;7.9;67
68489;BME280;55481;48.764;8.936;2023-02-17T00:45:52;97790;;;8;67
68489;BME280;55481;48.764;8.936;2023-02-17T00:48:16;97780;;;8;66.5
68489;BME280;55481;48.764;8.936;2023-02-17T00:50:46;97790;;;8;66.5
68489;BME280;55481;48.764;8.936;2023-02-17T00:53:17;97780;;;8.1;66.5
68489;BME280;55481;48.764;8.936;2023-02-17T00:55:48;97790;;;8;66.5
68489;BME280;55481;48.764;8.936;2023-02-17T01:03:20;97790;;;7.9;67
68489;BME280;55481;48.764;8.936;2023-02-17T01:10:52;97790;;;8;67
68489;BME280;55481;48.764;8.936;2023-02-17T01:18:25;97780;;;8.2;66.5
68489;BME280;55481;48.764;8.936;2023-02-17T01:21:17;97780;;;8.3;66.5
68489;BME280;55481;48.764;8.936;2023-02-17T01:23:53;97770;;;8.3;66.5
68489;BME280;55481;48.764;8.936;2023-02-17T01:26:13;97770;;;8.3;66
68489;BME280;55481;48.764;8.936;2023-02-17T01:31:09;97760;;;8.2;66.5
68489;BME280;55481;48.764;8.936;2023-02-17T01:33:40;97760;;;8.2;66.5
68489;BME280;55481;48.764;8.936;2023-02-17T01:36:05;97750;;;8.1;66.5
68489;BME280;55481;48.764;8.936;2023-02-17T01:38:35;97760;;;8.2;66.5
68489;BME280;55481;48.764;8.936;2023-02-17T01:41:07;97760;;;8.2;66.5
68489;BME280;55481;48.764;8.936;2023-02-17T01:44:16;97760;;;8.2;66.5
68489;BME280;55481;48.764;8.936;2023-02-17T01:48:51;97760;;;8.1;66.5
68489;BME280;55481;48.764;8.936;2023-02-17T01:51:29;97750;;;8.1;66.5
68489;BME280;55481;48.764;8.936;2023-02-17T01:53:48;97750;;;8;67
68489;BME280;55481;48.764;8.936;2023-02-17T01:56:15;97750;;;8;67
68489;BME280;55481;48.764;8.936;2023-02-17T02:01:10;97760;;;8;66.5
68489;BME280;55481;48.764;8.936;2023-02-17T02:03:41;97760;;;8;66.5
68489;BME280;55481;48.764;8.936;2023-02-17T02:06:12;97750;;;8;66.5
68489;BME280;55481;48.764;8.936;2023-02-17T02:08:53;97750;;;7.8;67
68489;BME280;55481;48.764;8.936;2023-02-17T02:13:57;97750;;;7.8;67
68489;BME280;55481;48.764;8.936;2023-02-17T02:16:36;97750;;;7.9;67
68489;BME280;55481;48.764;8.936;2023-02-17T02:21:21;97740;;;8.1;66.5
68489;BME280;55481;48.764;8.936;2023-02-17T02:26:24;97740;;;8.4;65.5
68489;BME280;55481;48.764;8.936;2023-02-17T02:32:24;97730;;;8.4;66
68489;BME280;55481;48.764;8.936;2023-02-17T02:33:50;97720;;;8.6;65.5
68489;BME280;55481;48.764;8.936;2023-02-17T02:36:26;97730;;;8.5;65.5
68489;BME280;55481;48.764;8.936;2023-02-17T02:39:03;97730;;;8.5;66
68489;BME280;55481;48.764;8.936;2023-02-17T02:41:41;97730;;;8.5;66
68489;BME280;55481;48.764;8.936;2023-02-17T02:46:31;97730;;;8.5;66
68489;BME280;55481;48.764;8.936;2023-02-17T02:51:45;97720;;;8.4;66.5
68489;BME280;55481;48.764;8.936;2023-02-17T02:54:07;97720;;;8.2;66.5
68489;BME280;55481;48.764;8.936;2023-02-17T02:56:41;97710;;;8.1;67
68489;BME280;55481;48.764;8.936;2023-02-17T02:58:59;97710;;;8;67
68489;BME280;55481;48.764;8.936;2023-02-17T03:06:25;97700;;;8.1;67
68489;BME280;55481;48.764;8.936;2023-02-17T03:08:53;97700;;;8.1;66.5
68489;BME280;55481;48.764;8.936;2023-02-17T03:11:23;97690;;;8.1;66.5
68489;BME280;55481;48.764;8.936;2023-02-17T03:13:54;97680;;;8.1;66.5
68489;BME280;55481;48.764;8.936;2023-02-17T03:16:36;97690;;;8.1;66.5
68489;BME280;55481;48.764;8.936;2023-02-17T03:19:06;97680;;;8.1;66.5
68489;BME280;55481;48.764;8.936;2023-02-17T03:21:39;97680;;;8.2;66.5
68489;BME280;55481;48.764;8.936;2023-02-17T03:23:55;97690;;;8.1;66.5
68489;BME280;55481;48.764;8.936;2023-02-17T03:26:26;97690;;;8;66.5
68489;BME280;55481;48.764;8.936;2023-02-17T03:38:58;97700;;;7.7;67
68489;BME280;55481;48.764;8.936;2023-02-17T03:41:28;97700;;;7.7;67
68489;BME280;55481;48.764;8.936;2023-02-17T03:43:59;97710;;;7.8;67
68489;BME280;55481;48.764;8.936;2023-02-17T03:46:29;97710;;;7.8;67
68489;BME280;55481;48.764;8.936;2023-02-17T03:49:00;97710;;;7.8;67
68489;BME280;55481;48.764;8.936;2023-02-17T03:51:30;97710;;;7.8;66.5
68489;BME280;55481;48.764;8.936;2023-02-17T03:54:01;97700;;;7.9;66.5
68489;BME280;55481;48.764;8.936;2023-02-17T04:01:33;97700;;;8.2;66
68489;BME280;55481;48.764;8.936;2023-02-17T04:04:14;97710;;;8.2;66
68489;BME280;55481;48.764;8.936;2023-02-17T04:06:44;97710;;;8.2;66
68489;BME280;55481;48.764;8.936;2023-02-17T04:09:14;97710;;;8.3;66
68489;BME280;55481;48.764;8.936;2023-02-17T04:16:56;97710;;;8.4;66
68489;BME280;55481;48.764;8.936;2023-02-17T04:19:36;97720;;;8.3;66.5
68489;BME280;55481;48.764;8.936;2023-02-17T04:21:46;97710;;;8.4;66
68489;BME280;55481;48.764;8.936;2023-02-17T04:24:16;97720;;;8.7;65.5
68489;BME280;55481;48.764;8.936;2023-02-17T04:26:46;97720;;;8.9;65
68489;BME280;55481;48.764;8.936;2023-02-17T04:31:37;97720;;;9;65
68489;BME280;55481;48.764;8.936;2023-02-17T04:41:38;97700;;;8.9;65.5
68489;BME280;55481;48.764;8.936;2023-02-17T04:44:09;97700;;;9;65.5
68489;BME280;55481;48.764;8.936;2023-02-17T04:46:39;97700;;;9;65.5
68489;BME280;55481;48.764;8.936;2023-02-17T04:54:11;97690;;;8.7;66.5
68489;BME280;55481;48.764;8.936;2023-02-17T04:56:41;97690;;;8.7;66.5
68489;BME280;55481;48.764;8.936;2023-02-17T04:59:12;97700;;;8.7;66.5
68489;BME280;55481;48.764;8.936;2023-02-17T05:04:24;97690;;;8.7;66.5
68489;BME280;55481;48.764;8.936;2023-02-17T05:06:54;97690;;;8.7;66.5
68489;BME280;55481;48.764;8.936;2023-02-17T05:09:24;97690;;;8.7;66.5
68489;BME280;55481;48.764;8.936;2023-02-17T05:11:44;97680;;;8.7;66.5
68489;BME280;55481;48.764;8.936;2023-02-17T05:14:15;97680;;;8.7;66.5
68489;BME280;55481;48.764;8.936;2023-02-17T05:21:46;97680;;;8.6;66.5
68489;BME280;55481;48.764;8.936;2023-02-17T05:24:16;97680;;;8.5;66.5
68489;BME280;55481;48.764;8.936;2023-02-17T05:26:47;97680;;;8.5;66.5
68489;BME280;55481;48.764;8.936;2023-02-17T05:29:17;97680;;;8.5;66.5
68489;BME280;55481;48.764;8.936;2023-02-17T05:31:59;97680;;;8.6;66
68489;BME280;55481;48.764;8.936;2023-02-17T05:34:29;97690;;;8.7;66
68489;BME280;55481;48.764;8.936;2023-02-17T05:36:59;97690;;;8.7;66
68489;BME280;55481;48.764;8.936;2023-02-17T05:39:19;97690;;;8.7;66
68489;BME280;55481;48.764;8.936;2023-02-17T05:46:51;97700;;;8.6;66.5
68489;BME280;55481;48.764;8.936;2023-02-17T05:49:21;97700;;;8.7;66.5
68489;BME280;55481;48.764;8.936;2023-02-17T05:51:52;97700;;;8.7;66.5
68489;BME280;55481;48.764;8.936;2023-02-17T05:54:23;97710;;;8.7;66.5
68489;BME280;55481;48.764;8.936;2023-02-17T05:57:04;97710;;;8.7;66.5
68489;BME280;55481;48.764;8.936;2023-02-17T05:59:43;97710;;;8.8;66.5
68489;BME280;55481;48.764;8.936;2023-02-17T06:02:06;97720;;;8.8;66.5
68489;BME280;55481;48.764;8.936;2023-02-17T06:04:35;97710;;;8.8;66.5
68489;BME280;55481;48.764;8.936;2023-02-17T06:12:16;97720;;;8.7;67
68489;BME280;55481;48.764;8.936;2023-02-17T06:14:46;97720;;;8.6;67
68489;BME280;55481;48.764;8.936;2023-02-17T06:17:17;97720;;;8.7;67
68489;BME280;55481;48.764;8.936;2023-02-17T06:19:36;97720;;;8.6;67
68489;BME280;55481;48.764;8.936;2023-02-17T06:22:06;97730;;;8.6;67
68489;BME280;55481;48.764;8.936;2023-02-17T06:24:37;97730;;;8.6;67
68489;BME280;55481;48.764;8.936;2023-02-17T06:26:56;97730;;;8.7;67
68489;BME280;55481;48.764;8.936;2023-02-17T06:29:26;97740;;;8.7;67
68489;BME280;55481;48.764;8.936;2023-02-17T06:36:58;97740;;;8.7;67
68489;BME280;55481;48.764;8.936;2023-02-17T06:39:29;97730;;;8.7;67
68489;BME280;55481;48.764;8.936;2023-02-17T06:41:59;97730;;;8.7;67
68489;BME280;55481;48.764;8.936;2023-02-17T06:44:30;97730;;;8.6;67
68489;BME280;55481;48.764;8.936;2023-02-17T06:49:42;97740;;;8.8;67
68489;BME280;55481;48.764;8.936;2023-02-17T06:52:12;97740;;;8.8;67
68489;BME280;55481;48.764;8.936;2023-02-17T06:54:42;97750;;;8.8;67
68489;BME280;55481;48.764;8.936;2023-02-17T06:57:01;97750;;;8.8;67
68489;BME280;55481;48.764;8.936;2023-02-17T07:04:33;97760;;;8.9;67
68489;BME280;55481;48.764;8.936;2023-02-17T07:07:04;97760;;;8.9;67
68489;BME280;55481;48.764;8.936;2023-02-17T07:09:35;97760;;;8.9;67
68489;BME280;55481;48.764;8.936;2023-02-17T07:14:46;97770;;;8.8;67
68489;BME280;55481;48.764;8.936;2023-02-17T07:17:16;97770;;;8.8;67
68489;BME280;55481;48.764;8.936;2023-02-17T07:19:46;97770;;;8.8;67
68489;BME280;55481;48.764;8.936;2023-02-17T07:24:36;97770;;;8.8;67.5
68489;BME280;55481;48.764;8.936;2023-02-17T07:32:07;97770;;;8.8;67.5
68489;BME280;55481;48.764;8.936;2023-02-17T07:34:38;97770;;;8.8;67.5
68489;BME280;55481;48.764;8.936;2023-02-17T07:37:09;97780;;;8.8;67.5
68489;BME280;55481;48.764;8.936;2023-02-17T07:39:39;97770;;;8.8;67.5
68489;BME280;55481;48.764;8.936;2023-02-17T07:42:10;97770;;;8.9;67.5
68489;BME280;55481;48.764;8.936;2023-02-17T07:44:51;97770;;;8.9;67.5
68489;BME280;55481;48.764;8.936;2023-02-17T07:47:21;97760;;;8.9;67.5
68489;BME280;55481;48.764;8.936;2023-02-17T07:49:52;97780;;;8.9;67
68489;BME280;55481;48.764;8.936;2023-02-17T07:59:42;97790;;;9.1;67
68489;BME280;55481;48.764;8.936;2023-02-17T08:02:12;97790;;;9.1;67
68489;BME280;55481;48.764;8.936;2023-02-17T08:04:43;97800;;;9.2;67
68489;BME280;55481;48.764;8.936;2023-02-17T08:07:13;97800;;;9.2;67
68489;BME280;55481;48.764;8.936;2023-02-17T08:09:44;97800;;;9.3;67
68489;BME280;55481;48.764;8.936;2023-02-17T08:12:15;97790;;;9.2;67
68489;BME280;55481;48.764;8.936;2023-02-17T08:14:56;97790;;;9.2;67
68489;BME280;55481;48.764;8.936;2023-02-17T08:17:27;97790;;;9.2;67
68489;BME280;55481;48.764;8.936;2023-02-17T08:19:56;97790;;;9.2;67
68489;BME280;55481;48.764;8.936;2023-02-17T08:22:26;97790;;;9.2;67
68489;BME280;55481;48.764;8.936;2023-02-17T08:24:46;97800;;;9.3;67
68489;BME280;55481;48.764;8.936;2023-02-17T08:27:17;97800;;;9.3;67
68489;BME280;55481;48.764;8.936;2023-02-17T08:29:47;97800;;;9.4;67
68489;BME280;55481;48.764;8.936;2023-02-17T08:32:18;97800;;;9.5;67
68489;BME280;55481;48.764;8.936;2023-02-17T08:34:50;97810;;;9.6;67
68489;BME280;55481;48.764;8.936;2023-02-17T08:37:18;97810;;;9.6;67
68489;BME280;55481;48.764;8.936;2023-02-17T08:39:50;97810;;;9.7;67
68489;BME280;55481;48.764;8.936;2023-02-17T08:42:20;97810;;;9.7;66.5
68489;BME280;55481;48.764;8.936;2023-02-17T08:44:50;97800;;;9.8;67
68489;BME280;55481;48.764;8.936;2023-02-17T08:55:14;97800;;;9.6;67.5
68489;BME280;55481;48.764;8.936;2023-02-17T08:57:33;97800;;;9.6;67.5
68489;BME280;55481;48.764;8.936;2023-02-17T09:02:33;97800;;;9.6;67.5
68489;BME280;55481;48.764;8.936;2023-02-17T09:05:16;97800;;;9.6;67.5
68489;BME280;55481;48.764;8.936;2023-02-17T09:07:55;97790;;;9.5;67.5
68489;BME280;55481;48.764;8.936;2023-02-17T09:10:17;97790;;;9.6;67.5
68489;BME280;55481;48.764;8.936;2023-02-17T09:12:47;97780;;;9.6;67.5
68489;BME280;55481;48.764;8.936;2023-02-17T09:15:06;97780;;;9.6;67.5
68489;BME280;55481;48.764;8.936;2023-02-17T09:17:37;97780;;;9.7;67.5
68489;BME280;55481;48.764;8.936;2023-02-17T09:20:17;97780;;;9.7;67.5
68489;BME280;55481;48.764;8.936;2023-02-17T09:24:55;97780;;;10;67
68489;BME280;55481;48.764;8.936;2023-02-17T09:29:56;97770;;;10.4;66
68489;BME280;55481;48.764;8.936;2023-02-17T09:32:27;97760;;;10.4;66.5
68489;BME280;55481;48.764;8.936;2023-02-17T09:34:57;97760;;;10.4;66.5
68489;BME280;55481;48.764;8.936;2023-02-17T09:37:28;97760;;;10.5;66.5
68489;BME280;55481;48.764;8.936;2023-02-17T09:40:18;97770;;;10.6;66.5
68489;BME280;55481;48.764;8.936;2023-02-17T09:42:40;97760;;;10.6;66.5
68489;BME280;55481;48.764;8.936;2023-02-17T09:45:20;97770;;;10.6;66.5
68489;BME280;55481;48.764;8.936;2023-02-17T09:47:50;97780;;;10.6;67
68489;BME280;55481;48.764;8.936;2023-02-17T09:50:11;97780;;;11;66
68489;BME280;55481;48.764;8.936;2023-02-17T09:55:02;97800;;;11.4;65.5
68489;BME280;55481;48.764;8.936;2023-02-17T09:57:34;97800;;;11.5;65.5
68489;BME280;55481;48.764;8.936;2023-02-17T10:02:33;97800;;;11.4;66
68489;BME280;55481;48.764;8.936;2023-02-17T10:05:03;97810;;;11.5;66
68489;BME280;55481;48.764;8.936;2023-02-17T10:07:45;97810;;;11.5;66
68489;BME280;55481;48.764;8.936;2023-02-17T10:10:05;97810;;;11.4;66.5
68489;BME280;55481;48.764;8.936;2023-02-17T10:17:44;97800;;;11.2;67
68489;BME280;55481;48.764;8.936;2023-02-17T10:20:10;97810;;;11.4;66.5
68489;BME280;55481;48.764;8.936;2023-02-17T10:23:00;97820;;;11.4;66.5
68489;BME280;55481;48.764;8.936;2023-02-17T10:25:41;97820;;;11.4;66.5
68489;BME280;55481;48.764;8.936;2023-02-17T10:28:09;97810;;;11.5;66.5
68489;BME280;55481;48.764;8.936;2023-02-17T10:32:52;97800;;;11.8;66
68489;BME280;55481;48.764;8.936;2023-02-17T10:35:21;97810;;;12;66
68489;BME280;55481;48.764;8.936;2023-02-17T10:37:55;97810;;;12;66
68489;BME280;55481;48.764;8.936;2023-02-17T10:45:17;97800;;;12;66.5
68489;BME280;55481;48.764;8.936;2023-02-17T10:47:39;97800;;;11.9;66.5
68489;BME280;55481;48.764;8.936;2023-02-17T10:50:14;97800;;;12;66.5
68489;BME280;55481;48.764;8.936;2023-02-17T10:52:40;97800;;;12.1;66
68489;BME280;55481;48.764;8.936;2023-02-17T10:55:32;97810;;;12.1;66.5
68489;BME280;55481;48.764;8.936;2023-02-17T10:58:02;97810;;;12.2;66.5
68489;BME280;55481;48.764;8.936;2023-02-17T11:00:23;97800;;;12.3;66
68489;BME280;55481;48.764;8.936;2023-02-17T11:02:42;97790;;;12.5;66
68489;BME280;55481;48.764;8.936;2023-02-17T11:05:28;97780;;;12.5;66
68489;BME280;55481;48.764;8.936;2023-02-17T11:12:43;97780;;;12.7;66
68489;BME280;55481;48.764;8.936;2023-02-17T11:15:15;97780;;;12.6;66
68489;BME280;55481;48.764;8.936;2023-02-17T11:17:45;97770;;;12.7;66
68489;BME280;55481;48.764;8.936;2023-02-17T11:20:29;97780;;;12.7;66
68489;BME280;55481;48.764;8.936;2023-02-17T11:25:29;97780;;;12.6;66.5
68489;BME280;55481;48.764;8.936;2023-02-17T11:27:58;97780;;;12.6;66.5
68489;BME280;55481;48.764;8.936;2023-02-17T11:30:28;97780;;;12.7;66
68489;BME280;55481;48.764;8.936;2023-02-17T11:40:39;97760;;;12.6;66.5
68489;BME280;55481;48.764;8.936;2023-02-17T11:45:57;97760;;;12.5;66.5
68489;BME280;55481;48.764;8.936;2023-02-17T11:50:44;97760;;;12.4;67
68489;BME280;55481;48.764;8.936;2023-02-17T11:53:17;97760;;;12.5;67
68489;BME280;55481;48.764;8.936;2023-02-17T12:00:51;97760;;;12.6;66.5
68489;BME280;55481;48.764;8.936;2023-02-17T12:03:08;97760;;;12.7;66.5
68489;BME280;55481;48.764;8.936;2023-02-17T12:05:48;97770;;;12.7;66.5
68489;BME280;55481;48.764;8.936;2023-02-17T12:07:57;97770;;;12.7;66.5
68489;BME280;55481;48.764;8.936;2023-02-17T12:10:25;97760;;;12.7;66.5
68489;BME280;55481;48.764;8.936;2023-02-17T12:13:13;97760;;;12.8;66.5
68489;BME280;55481;48.764;8.936;2023-02-17T12:16:27;97760;;;12.8;66.5
68489;BME280;55481;48.764;8.936;2023-02-17T12:17:57;97750;;;12.8;66.5
68489;BME280;55481;48.764;8.936;2023-02-17T12:22:59;97770;;;13;66
68489;BME280;55481;48.764;8.936;2023-02-17T12:30:49;97770;;;13;66.5
68489;BME280;55481;48.764;8.936;2023-02-17T12:35:39;97760;;;13.1;66.5
68489;BME280;55481;48.764;8.936;2023-02-17T12:38:09;97760;;;13.2;66
68489;BME280;55481;48.764;8.936;2023-02-17T12:40:37;97750;;;13.1;66.5
68489;BME280;55481;48.764;8.936;2023-02-17T12:45:43;97740;;;13.1;66.5
68489;BME280;55481;48.764;8.936;2023-02-17T12:52:58;97740;;;13.1;66.5
68489;BME280;55481;48.764;8.936;2023-02-17T12:55:30;97740;;;13.2;66.5
68489;BME280;55481;48.764;8.936;2023-02-17T12:58:00;97740;;;13.3;66.5
68489;BME280;55481;48.764;8.936;2023-02-17T13:00:32;97740;;;13.1;66.5
68489;BME280;55481;48.764;8.936;2023-02-17T13:03:11;97740;;;13.3;66.5
68489;BME280;55481;48.764;8.936;2023-02-17T13:06:45;97740;;;13.3;66.5
68489;BME280;55481;48.764;8.936;2023-02-17T13:08:28;97740;;;13.3;66.5
68489;BME280;55481;48.764;8.936;2023-02-17T13:10:31;97740;;;13.4;66.5
68489;BME280;55481;48.764;8.936;2023-02-17T13:13:01;97730;;;13.4;66.5
68489;BME280;55481;48.764;8.936;2023-02-17T13:16:09;97740;;;13.4;66.5
68489;BME280;55481;48.764;8.936;2023-02-17T13:18:26;97740;;;13.3;66.5
68489;BME280;55481;48.764;8.936;2023-02-17T13:23:26;97750;;;13.3;66.5
68489;BME280;55481;48.764;8.936;2023-02-17T13:30:45;97730;;;13.5;66.5
68489;BME280;55481;48.764;8.936;2023-02-17T13:35:56;97720;;;13.9;65.5
68489;BME280;55481;48.764;8.936;2023-02-17T13:38:28;97730;;;14.2;65
68489;BME280;55481;48.764;8.936;2023-02-17T13:43:18;97730;;;14.5;65
68489;BME280;55481;48.764;8.936;2023-02-17T13:45:47;97730;;;14.4;65
68489;BME280;55481;48.764;8.936;2023-02-17T13:48:28;97730;;;14.2;65.5
68489;BME280;55481;48.764;8.936;2023-02-17T13:50:59;97730;;;14;66.5
68489;BME280;55481;48.764;8.936;2023-02-17T13:53:22;97730;;;13.9;66.5
68489;BME280;55481;48.764;8.936;2023-02-17T13:58:08;97730;;;13.9;66.5
68489;BME280;55481;48.764;8.936;2023-02-17T14:00:37;97730;;;13.9;66.5
68489;BME280;55481;48.764;8.936;2023-02-17T14:03:14;97730;;;13.9;66.5
68489;BME280;55481;48.764;8.936;2023-02-17T14:05:42;97730;;;14.1;66.5
68489;BME280;55481;48.764;8.936;2023-02-17T14:21:06;97720;;;13.6;67.5
68489;BME280;55481;48.764;8.936;2023-02-17T14:23:45;97720;;;13.5;67.5
68489;BME280;55481;48.764;8.936;2023-02-17T14:25:53;97730;;;13.4;67.5
68489;BME280;55481;48.764;8.936;2023-02-17T14:28:24;97730;;;13.3;68
68489;BME280;55481;48.764;8.936;2023-02-17T14:30:53;97740;;;13.2;68
68489;BME280;55481;48.764;8.936;2023-02-17T14:33:17;97740;;;13.2;68
68489;BME280;55481;48.764;8.936;2023-02-17T14:36:06;97740;;;13.1;68
68489;BME280;55481;48.764;8.936;2023-02-17T14:38:39;97740;;;12.9;68
68489;BME280;55481;48.764;8.936;2023-02-17T14:41:07;97750;;;12.8;68.5
68489;BME280;55481;48.764;8.936;2023-02-17T14:43:37;97750;;;12.8;68.5
68489;BME280;55481;48.764;8.936;2023-02-17T14:46:17;97740;;;12.8;68
68489;BME280;55481;48.764;8.936;2023-02-17T14:50:58;97740;;;13;67.5
68489;BME280;55481;48.764;8.936;2023-02-17T14:53:29;97740;;;12.9;68
68489;BME280;55481;48.764;8.936;2023-02-17T14:56:02;97740;;;12.9;68
68489;BME280;55481;48.764;8.936;2023-02-17T14:58:28;97740;;;13.2;67.5
68489;BME280;55481;48.764;8.936;2023-02-17T15:05:49;97740;;;12.7;68
68489;BME280;55481;48.764;8.936;2023-02-17T15:08:20;97740;;;12.8;68
68489;BME280;55481;48.764;8.936;2023-02-17T15:10:50;97740;;;13;67.5
68489;BME280;55481;48.764;8.936;2023-02-17T15:13:20;97740;;;13;67.5
68489;BME280;55481;48.764;8.936;2023-02-17T15:15:51;97740;;;13;67.5
68489;BME280;55481;48.764;8.936;2023-02-17T15:18:32;97720;;;12.8;68
68489;BME280;55481;48.764;8.936;2023-02-17T15:21:06;97730;;;12.8;68
68489;BME280;55481;48.764;8.936;2023-02-17T15:23:33;97730;;;12.7;68
68489;BME280;55481;48.764;8.936;2023-02-17T15:30:54;97710;;;12.5;68.5
68489;BME280;55481;48.764;8.936;2023-02-17T15:35:54;97710;;;12.5;68.5
68489;BME280;55481;48.764;8.936;2023-02-17T15:38:26;97710;;;12.4;68.5
68489;BME280;55481;48.764;8.936;2023-02-17T15:40:56;97710;;;12.1;69
68489;BME280;55481;48.764;8.936;2023-02-17T15:43:30;97720;;;12.2;69
68489;BME280;55481;48.764;8.936;2023-02-17T15:48:39;97720;;;12;69
68489;BME280;55481;48.764;8.936;2023-02-17T15:51:09;97730;;;11.8;69.5
68489;BME280;55481;48.764;8.936;2023-02-17T15:53:38;97720;;;11.9;69
68489;BME280;55481;48.764;8.936;2023-02-17T15:58:28;97710;;;11.8;69
68489;BME280;55481;48.764;8.936;2023-02-17T16:00:59;97700;;;11.8;69
68489;BME280;55481;48.764;8.936;2023-02-17T16:03:28;97710;;;11.8;69
68489;BME280;55481;48.764;8.936;2023-02-17T16:06:00;97710;;;11.8;69
68489;BME280;55481;48.764;8.936;2023-02-17T16:08:29;97710;;;11.7;69
68489;BME280;55481;48.764;8.936;2023-02-17T16:11:00;97710;;;11.7;69
68489;BME280;55481;48.764;8.936;2023-02-17T16:13:43;97710;;;11.6;69
68489;BME280;55481;48.764;8.936;2023-02-17T16:16:14;97700;;;11.6;69
68489;BME280;55481;48.764;8.936;2023-02-17T16:18:43;97700;;;11.6;69
68489;BME280;55481;48.764;8.936;2023-02-17T16:23:31;97700;;;11.6;69
68489;BME280;55481;48.764;8.936;2023-02-17T16:26:01;97700;;;11.6;69
68489;BME280;55481;48.764;8.936;2023-02-17T16:28:32;97700;;;11.5;68.5
68489;BME280;55481;48.764;8.936;2023-02-17T16:31:03;97710;;;11.5;69
68489;BME280;55481;48.764;8.936;2023-02-17T16:33:33;97710;;;11.5;68.5
68489;BME280;55481;48.764;8.936;2023-02-17T16:36:09;97710;;;11.5;69
68489;BME280;55481;48.764;8.936;2023-02-17T16:38:34;97720;;;11.5;68.5
68489;BME280;55481;48.764;8.936;2023-02-17T16:43:46;97720;;;11.5;68.5
68489;BME280;55481;48.764;8.936;2023-02-17T16:46:21;97720;;;11.5;68.5
68489;BME280;55481;48.764;8.936;2023-02-17T16:48:56;97730;;;11.5;68.5
68489;BME280;55481;48.764;8.936;2023-02-17T16:51:05;97730;;;11.5;69
68489;BME280;55481;48.764;8.936;2023-02-17T16:53:36;97740;;;11.5;68.5
68489;BME280;55481;48.764;8.936;2023-02-17T16:56:13;97750;;;11.5;68.5
68489;BME280;55481;48.764;8.936;2023-02-17T16:58:37;97750;;;11.5;68.5
68489;BME280;55481;48.764;8.936;2023-02-17T17:01:09;97740;;;11.5;68.5
68489;BME280;55481;48.764;8.936;2023-02-17T17:03:38;97740;;;11.5;68.5
68489;BME280;55481;48.764;8.936;2023-02-17T17:06:21;97750;;;11.5;69
68489;BME280;55481;48.764;8.936;2023-02-17T17:08:51;97750;;;11.4;69
68489;BME280;55481;48.764;8.936;2023-02-17T17:11:21;97750;;;11.4;69
68489;BME280;55481;48.764;8.936;2023-02-17T17:14:00;97750;;;11.4;69
68489;BME280;55481;48.764;8.936;2023-02-17T17:16:55;97740;;;11.5;69.5
68489;BME280;55481;48.764;8.936;2023-02-17T17:19:15;97750;;;11.7;70
68489;BME280;55481;48.764;8.936;2023-02-17T17:21:45;97750;;;11.6;70
68489;BME280;55481;48.764;8.936;2023-02-17T17:24:17;97750;;;11.5;69.5
68489;BME280;55481;48.764;8.936;2023-02-17T17:31:49;97760;;;11.5;69
68489;BME280;55481;48.764;8.936;2023-02-17T17:34:19;97760;;;11.5;69
68489;BME280;55481;48.764;8.936;2023-02-17T17:39:27;97750;;;11.4;69
68489;BME280;55481;48.764;8.936;2023-02-17T17:41:58;97750;;;11.4;69
68489;BME280;55481;48.764;8.936;2023-02-17T17:44:29;97750;;;11.4;69
68489;BME280;55481;48.764;8.936;2023-02-17T17:46:53;97750;;;11.4;69
68489;BME280;55481;48.764;8.936;2023-02-17T17:49:23;97750;;;11.4;69
68489;BME280;55481;48.764;8.936;2023-02-17T17:54:25;97770;;;11.4;69
68489;BME280;55481;48.764;8.936;2023-02-17T17:57:09;97770;;;11.4;69
68489;BME280;55481;48.764;8.936;2023-02-17T17:59:39;97770;;;11.4;69
68489;BME280;55481;48.764;8.936;2023-02-17T18:02:09;97780;;;11.4;69
68489;BME280;55481;48.764;8.936;2023-02-17T18:12:07;97780;;;11.4;69
68489;BME280;55481;48.764;8.936;2023-02-17T18:14:37;97780;;;11.5;69
68489;BME280;55481;48.764;8.936;2023-02-17T18:17:08;97790;;;11.4;69
68489;BME280;55481;48.764;8.936;2023-02-17T18:19:39;97790;;;11.5;69
68489;BME280;55481;48.764;8.936;2023-02-17T18:22:10;97790;;;11.6;68.5
68489;BME280;55481;48.764;8.936;2023-02-17T18:24:40;97800;;;11.6;68.5
68489;BME280;55481;48.764;8.936;2023-02-17T18:27:07;97800;;;11.6;68.5
68489;BME280;55481;48.764;8.936;2023-02-17T18:37:08;97820;;;11.8;68.5
68489;BME280;55481;48.764;8.936;2023-02-17T18:39:39;97820;;;11.7;68.5
68489;BME280;55481;48.764;8.936;2023-02-17T18:42:10;97820;;;11.7;68.5
68489;BME280;55481;48.764;8.936;2023-02-17T18:44:40;97830;;;11.7;68.5
68489;BME280;55481;48.764;8.936;2023-02-17T18:47:18;97830;;;11.7;68.5
68489;BME280;55481;48.764;8.936;2023-02-17T18:49:48;97830;;;11.7;68.5
68489;BME280;55481;48.764;8.936;2023-02-17T18:54:44;97840;;;11.7;68.5
68489;BME280;55481;48.764;8.936;2023-02-17T19:04:46;97850;;;11.7;68.5
68489;BME280;55481;48.764;8.936;2023-02-17T19:07:18;97850;;;11.7;69
68489;BME280;55481;48.764;8.936;2023-02-17T19:09:49;97860;;;11.8;68.5
68489;BME280;55481;48.764;8.936;2023-02-17T19:12:19;97850;;;11.8;68.5
68489;BME280;55481;48.764;8.936;2023-02-17T19:17:27;97890;;;11.9;68.5
68489;BME280;55481;48.764;8.936;2023-02-17T19:19:58;97870;;;11.9;68.5
68489;BME280;55481;48.764;8.936;2023-02-17T19:22:29;97870;;;11.9;68.5
68489;BME280;55481;48.764;8.936;2023-02-17T19:24:59;97880;;;11.8;68.5
68489;BME280;55481;48.764;8.936;2023-02-17T19:32:25;97880;;;11.6;69
68489;BME280;55481;48.764;8.936;2023-02-17T19:34:56;97880;;;11.5;69.5
68489;BME280;55481;48.764;8.936;2023-02-17T19:37:26;97890;;;11.5;69.5